Time,TemperatureF,DewpointF,PressureIn,WindDirection,WindDirectionDegrees,WindSpeedMPH,WindSpeedGustMPH,Humidity,HourlyPrecipIn,Conditions,Clouds,dailyrainin,SolarRadiationWatts/m^2,SoftwareType,DateUTC
2014-01-03 00:01:00,7.0,3.2,29.88,NNW,340,3.3,5.8,84,0.00,-SN,BKN,0.00,0.0,WeatherDisplay:10.37,2014-01-03 05:01:00,
2014-01-03 00:02:00,7.0,3.2,29.89,NNW,332,5.6,8.1,84,0.00,-SN,BKN,0.00,0.0,WeatherDisplay:10.37,2014-01-03 05:02:00,
2014-01-03 00:07:00,7.0,3.2,29.88,NNW,334,3.5,9.0,84,0.00,-SN,BKN,0.00,0.0,WeatherDisplay:10.37,2014-01-03 05:07:00,
2014-01-03 00:12:00,7.0,3.2,29.88,ENE,73,4.8,6.9,84,0.00,-SN,BKN,0.00,0.0,WeatherDisplay:10.37,2014-01-03 05:12:00,
2014-01-03 00:17:00,7.0,3.2,29.89,NNW,348,4.5,8.1,84,0.00,-SN,BKN,0.00,0.0,WeatherDisplay:10.37,2014-01-03 05:17:00,
2014-01-03 00:22:00,7.0,3.2,29.88,NNW,339,3.5,9.2,84,0.00,-SN,BKN,0.00,0.0,WeatherDisplay:10.37,2014-01-03 05:22:00,
2014-01-03 00:27:00,7.0,3.2,29.89,NNW,344,8.3,11.5,84,0.00,-SN,BKN,0.00,0.0,WeatherDisplay:10.37,2014-01-03 05:27:00,
2014-01-03 00:33:00,7.0,3.2,29.89,NNW,337,5.2,9.2,84,0.00,-SN,BKN,0.00,0.0,WeatherDisplay:10.37,2014-01-03 05:33:00,
2014-01-03 00:38:00,7.0,3.2,29.89,North,2,5.1,9.2,84,0.00,-SN,BKN,0.00,0.0,WeatherDisplay:10.37,2014-01-03 05:38:00,
2014-01-03 00:43:00,7.0,3.2,29.89,NNW,327,6.7,9.2,84,0.00,-SN,BKN,0.00,0.0,WeatherDisplay:10.37,2014-01-03 05:43:00,
2014-01-03 00:48:00,7.0,3.2,29.89,NW,321,3.1,5.8,84,0.00,-SN,BKN,0.00,0.0,WeatherDisplay:10.37,2014-01-03 05:48:00,
2014-01-03 01:04:00,7.0,3.2,29.89,NNW,331,3.1,5.8,84,0.00,-SN,BKN,0.00,0.0,WeatherDisplay:10.37,2014-01-03 06:04:00,
2014-01-03 01:09:00,7.0,3.2,29.90,North,0,3.3,9.2,84,0.00,-SN,BKN,0.00,0.0,WeatherDisplay:10.37,2014-01-03 06:09:00,
2014-01-03 01:14:00,7.0,3.2,29.90,WNW,292,2.1,5.8,84,0.00,-SN,BKN,0.00,0.0,WeatherDisplay:10.37,2014-01-03 06:14:00,
2014-01-03 01:19:00,7.0,3.2,29.90,NW,326,2.6,9.2,84,0.00,-SN,BKN,0.00,0.0,WeatherDisplay:10.37,2014-01-03 06:19:00,
2014-01-03 01:39:00,7.0,3.2,29.91,NNW,327,5.3,8.1,84,0.00,-SN,BKN,0.00,0.0,WeatherDisplay:10.37,2014-01-03 06:39:00,
2014-01-03 01:46:00,7.2,3.3,29.91,NNW,342,3.9,9.8,84,0.00,-SN,BKN,0.00,0.0,WeatherDisplay:10.37,2014-01-03 06:46:00,
2014-01-03 01:51:00,7.2,3.3,29.91,NNW,345,4.9,8.1,84,0.00,-SN,BKN,0.00,0.0,WeatherDisplay:10.37,2014-01-03 06:51:00,
2014-01-03 01:57:00,7.2,3.3,29.91,NW,324,3.2,6.9,84,0.00,-SN,BKN,0.00,0.0,WeatherDisplay:10.37,2014-01-03 06:57:00,
2014-01-03 02:02:00,7.2,3.3,29.92,NW,326,4.7,6.9,84,0.00,-SN,BKN,0.00,0.0,WeatherDisplay:10.37,2014-01-03 07:02:00,
2014-01-03 02:08:00,7.2,3.3,29.91,NNW,335,6.2,8.1,84,0.00,-SN,BKN,0.00,0.0,WeatherDisplay:10.37,2014-01-03 07:08:00,
2014-01-03 02:18:00,7.2,3.3,29.92,WNW,301,4.3,9.2,84,0.00,-SN,BKN,0.00,0.0,WeatherDisplay:10.37,2014-01-03 07:18:00,
2014-01-03 02:23:00,7.2,3.3,29.92,NW,324,4.7,8.1,84,0.00,-SN,BKN,0.00,0.0,WeatherDisplay:10.37,2014-01-03 07:23:00,
2014-01-03 02:28:00,7.2,3.3,29.92,NNW,338,4.3,13.8,84,0.00,-SN,BKN,0.00,0.0,WeatherDisplay:10.37,2014-01-03 07:28:00,
2014-01-03 02:34:00,7.2,3.3,29.93,NNW,348,4.1,7.5,84,0.00,-SN,BKN,0.00,0.0,WeatherDisplay:10.37,2014-01-03 07:34:00,
2014-01-03 02:39:00,7.2,3.3,29.93,NW,314,5.7,9.2,84,0.00,-SN,BKN,0.00,0.0,WeatherDisplay:10.37,2014-01-03 07:39:00,
2014-01-03 02:44:00,7.2,3.3,29.93,NW,322,8.1,11.5,84,0.00,-SN,BKN,0.00,0.0,WeatherDisplay:10.37,2014-01-03 07:44:00,
2014-01-03 02:50:00,7.2,3.3,29.93,NW,326,8.7,10.4,84,0.00,-SN,BKN,0.00,0.0,WeatherDisplay:10.37,2014-01-03 07:50:00,
2014-01-03 02:55:00,7.0,3.2,29.94,NW,323,8.0,11.6,84,0.00,-SN,BKN,0.00,0.0,WeatherDisplay:10.37,2014-01-03 07:55:00,
2014-01-03 03:00:00,7.0,3.2,29.94,WNW,303,7.6,10.4,84,0.00,-SN,BKN,0.00,0.0,WeatherDisplay:10.37,2014-01-03 08:00:00,
2014-01-03 03:06:00,7.0,3.2,29.95,NW,316,6.8,10.4,84,0.00,-SN,BKN,0.00,0.0,WeatherDisplay:10.37,2014-01-03 08:06:00,
2014-01-03 03:11:00,7.0,3.2,29.95,NNW,336,7.9,10.4,84,0.00,-SN,BKN,0.00,0.0,WeatherDisplay:10.37,2014-01-03 08:11:00,
2014-01-03 04:28:00,6.6,2.8,29.98,NW,311,5.1,9.3,84,0.00,-SN,BKN,0.00,0.0,WeatherDisplay:10.37,2014-01-03 09:28:00,
2014-01-03 04:33:00,6.6,2.8,29.98,West,272,5.4,6.9,84,0.00,-SN,BKN,0.00,0.0,WeatherDisplay:10.37,2014-01-03 09:33:00,
2014-01-03 04:38:00,6.6,2.8,29.98,NW,311,4.3,6.9,84,0.00,-SN,BKN,0.00,0.0,WeatherDisplay:10.37,2014-01-03 09:38:00,
2014-01-03 04:43:00,6.6,2.8,29.98,WNW,295,7.6,12.0,84,0.00,-SN,BKN,0.00,0.0,WeatherDisplay:10.37,2014-01-03 09:43:00,
2014-01-03 04:48:00,6.6,2.8,29.98,NW,308,6.1,9.2,84,0.00,-SN,BKN,0.00,0.0,WeatherDisplay:10.37,2014-01-03 09:48:00,
2014-01-03 04:53:00,6.6,2.8,29.98,NW,323,6.2,10.1,84,0.00,-SN,BKN,0.00,0.0,WeatherDisplay:10.37,2014-01-03 09:53:00,
2014-01-03 04:58:00,6.6,2.8,29.99,NNW,334,6.9,9.2,84,0.00,-SN,BKN,0.00,0.0,WeatherDisplay:10.37,2014-01-03 09:58:00,
2014-01-03 05:05:00,6.8,3.0,29.99,NW,311,5.0,8.1,84,0.00,-SN,BKN,0.00,0.0,WeatherDisplay:10.37,2014-01-03 10:05:00,
2014-01-03 05:10:00,6.6,2.8,30.00,NW,309,6.2,7.0,84,0.00,-SN,BKN,0.00,0.0,WeatherDisplay:10.37,2014-01-03 10:10:00,
2014-01-03 05:15:00,6.8,3.0,30.00,WNW,297,5.3,6.9,84,0.00,-SN,BKN,0.00,0.0,WeatherDisplay:10.37,2014-01-03 10:15:00,
2014-01-03 05:20:00,6.8,3.0,30.00,WNW,284,5.1,6.9,84,0.00,-SN,BKN,0.00,0.0,WeatherDisplay:10.37,2014-01-03 10:20:00,
2014-01-03 05:25:00,6.8,3.0,30.01,NW,319,4.9,9.2,84,0.00,-SN,BKN,0.00,0.0,WeatherDisplay:10.37,2014-01-03 10:25:00,
2014-01-03 05:31:00,6.8,3.0,30.02,West,277,5.1,6.9,84,0.00,-SN,BKN,0.00,0.0,WeatherDisplay:10.37,2014-01-03 10:31:00,
2014-01-03 05:36:00,6.8,3.0,30.02,WNW,303,4.3,6.9,84,0.00,-SN,BKN,0.00,0.0,WeatherDisplay:10.37,2014-01-03 10:36:00,
2014-01-03 05:42:00,6.6,2.8,30.02,WNW,296,4.5,6.9,84,0.00,-SN,BKN,0.00,0.0,WeatherDisplay:10.37,2014-01-03 10:42:00,
2014-01-03 05:47:00,6.6,2.8,30.02,WNW,298,3.6,6.9,84,0.00,-SN,BKN,0.00,0.0,WeatherDisplay:10.37,2014-01-03 10:47:00,
2014-01-03 05:52:00,6.6,2.8,30.02,West,275,5.4,8.1,84,0.00,-SN,BKN,0.00,0.0,WeatherDisplay:10.37,2014-01-03 10:52:00,
2014-01-03 05:57:00,6.6,2.8,30.03,NW,321,6.6,8.5,84,0.00,-SN,BKN,0.00,0.0,WeatherDisplay:10.37,2014-01-03 10:57:00,
2014-01-03 06:02:00,6.8,3.0,30.03,NW,313,3.7,8.1,84,0.00,-SN,BKN,0.00,0.0,WeatherDisplay:10.37,2014-01-03 11:02:00,
2014-01-03 06:07:00,6.6,2.8,30.03,WNW,301,6.4,9.2,84,0.00,-SN,BKN,0.00,0.0,WeatherDisplay:10.37,2014-01-03 11:07:00,
2014-01-03 06:12:00,6.4,2.6,30.04,West,280,7.4,10.4,84,0.00,-SN,BKN,0.00,0.0,WeatherDisplay:10.37,2014-01-03 11:12:00,
2014-01-03 06:17:00,6.4,2.6,30.04,WNW,289,7.7,10.4,84,0.00,-SN,BKN,0.00,0.0,WeatherDisplay:10.37,2014-01-03 11:17:00,
2014-01-03 06:22:00,6.3,2.5,30.04,WNW,297,5.3,9.2,84,0.00,-SN,BKN,0.00,0.0,WeatherDisplay:10.37,2014-01-03 11:22:00,
2014-01-03 06:27:00,6.3,2.5,30.04,WNW,287,9.0,11.5,84,0.00,-SN,BKN,0.00,0.0,WeatherDisplay:10.37,2014-01-03 11:27:00,
2014-01-03 06:32:00,6.3,2.5,30.04,WNW,284,7.3,10.4,84,0.00,SCT,BKN,0.00,0.0,WeatherDisplay:10.37,2014-01-03 11:32:00,
2014-01-03 06:37:00,6.3,2.5,30.04,West,279,5.3,9.2,84,0.00,SCT,BKN,0.00,0.0,WeatherDisplay:10.37,2014-01-03 11:37:00,
2014-01-03 06:42:00,6.1,2.3,30.05,West,277,6.6,6.9,84,0.00,SCT,BKN,0.00,0.0,WeatherDisplay:10.37,2014-01-03 11:42:00,
2014-01-03 06:47:00,6.1,2.3,30.06,NW,309,6.2,9.2,84,0.00,SCT,BKN,0.00,0.0,WeatherDisplay:10.37,2014-01-03 11:47:00,
2014-01-03 06:52:00,6.1,2.3,30.06,West,280,6.1,8.1,84,0.00,SCT,BKN,0.00,0.0,WeatherDisplay:10.37,2014-01-03 11:52:00,
2014-01-03 06:57:00,6.1,2.3,30.06,WNW,289,5.7,8.1,84,0.00,SCT,BKN,0.00,0.0,WeatherDisplay:10.37,2014-01-03 11:57:00,
2014-01-03 07:05:00,5.9,2.1,30.06,WNW,298,6.6,10.4,84,0.00,SCT,BKN,0.00,0.0,WeatherDisplay:10.37,2014-01-03 12:05:00,
2014-01-03 07:11:00,5.9,2.1,30.07,West,269,6.9,10.4,84,0.00,SCT,BKN,0.00,0.0,WeatherDisplay:10.37,2014-01-03 12:11:00,
2014-01-03 07:17:00,5.7,1.9,30.07,WNW,303,5.9,8.1,84,0.00,SCT,BKN,0.00,0.0,WeatherDisplay:10.37,2014-01-03 12:17:00,
2014-01-03 07:22:00,5.5,1.8,30.08,West,263,8.0,11.5,84,0.00,SCT,BKN,0.00,0.0,WeatherDisplay:10.37,2014-01-03 12:22:00,
2014-01-03 07:28:00,5.5,1.5,30.08,West,264,5.9,8.1,83,0.00,SCT,BKN,0.00,0.0,WeatherDisplay:10.37,2014-01-03 12:28:00,
2014-01-03 07:34:00,5.4,1.3,30.08,NW,323,7.3,10.4,83,0.00,SCT,BKN,0.00,0.0,WeatherDisplay:10.37,2014-01-03 12:34:00,
2014-01-03 07:41:00,5.2,1.1,30.08,NW,304,8.4,12.7,83,0.00,SCT,BKN,0.00,0.0,WeatherDisplay:10.37,2014-01-03 12:41:00,
2014-01-03 07:48:00,5.0,1.0,30.09,West,278,4.8,5.8,83,0.00,SCT,BKN,0.00,0.0,WeatherDisplay:10.37,2014-01-03 12:48:00,
2014-01-03 07:54:00,4.8,0.8,30.09,WNW,292,6.3,8.1,83,0.00,SCT,BKN,0.00,0.0,WeatherDisplay:10.37,2014-01-03 12:54:00,
2014-01-03 08:00:00,4.8,1.0,30.10,NW,310,4.7,8.1,84,0.00,SCT,BKN,0.00,0.0,WeatherDisplay:10.37,2014-01-03 13:00:00,
2014-01-03 08:05:00,4.8,0.8,30.10,West,279,4.0,6.1,83,0.00,SCT,BKN,0.00,0.0,WeatherDisplay:10.37,2014-01-03 13:05:00,
2014-01-03 08:11:00,4.8,0.8,30.11,WNW,282,5.2,8.1,83,0.00,-SN,BKN,0.00,0.0,WeatherDisplay:10.37,2014-01-03 13:11:00,
2014-01-03 08:18:00,4.8,0.8,30.11,West,279,4.2,5.8,83,0.00,-SN,BKN,0.00,0.0,WeatherDisplay:10.37,2014-01-03 13:18:00,
2014-01-03 08:23:00,4.8,0.8,30.12,West,280,3.7,6.9,83,0.00,-SN,BKN,0.00,0.0,WeatherDisplay:10.37,2014-01-03 13:23:00,
2014-01-03 08:30:00,5.0,1.0,30.12,West,271,2.3,5.8,83,0.00,-SN,BKN,0.00,0.0,WeatherDisplay:10.37,2014-01-03 13:30:00,
2014-01-03 08:35:00,4.8,0.8,30.13,WNW,300,3.9,4.6,83,0.00,-SN,BKN,0.00,0.0,WeatherDisplay:10.37,2014-01-03 13:35:00,
2014-01-03 08:40:00,5.0,1.0,30.13,WNW,285,4.7,6.9,83,0.00,-SN,BKN,0.00,0.0,WeatherDisplay:10.37,2014-01-03 13:40:00,
2014-01-03 08:45:00,5.0,1.0,30.13,NW,306,6.7,10.4,83,0.00,-SN,BKN,0.00,0.0,WeatherDisplay:10.37,2014-01-03 13:45:00,
2014-01-03 08:50:00,5.2,1.4,30.13,WSW,255,4.4,10.4,84,0.00,-SN,BKN,0.00,1.6,WeatherDisplay:10.37,2014-01-03 13:50:00,
2014-01-03 08:55:00,5.2,1.4,30.13,WNW,284,5.1,6.9,84,0.00,-SN,BKN,0.00,6.1,WeatherDisplay:10.37,2014-01-03 13:55:00,
2014-01-03 09:00:00,5.2,1.4,30.14,WNW,300,6.0,9.2,84,0.00,-SN,BKN,0.00,9.1,WeatherDisplay:10.37,2014-01-03 14:00:00,
2014-01-03 09:05:00,5.2,1.4,30.14,West,281,3.0,6.9,84,0.00,-SN,BKN,0.00,14.9,WeatherDisplay:10.37,2014-01-03 14:05:00,
2014-01-03 09:10:00,5.2,1.4,30.14,WSW,248,4.4,6.9,84,0.00,-SN,BKN,0.00,20.6,WeatherDisplay:10.37,2014-01-03 14:10:00,
2014-01-03 09:15:00,5.2,1.1,30.14,West,263,3.6,5.8,83,0.00,-SN,BKN,0.00,29.4,WeatherDisplay:10.37,2014-01-03 14:15:00,
2014-01-03 09:20:00,5.2,1.4,30.14,West,266,3.5,6.9,84,0.00,-SN,BKN,0.00,34.0,WeatherDisplay:10.37,2014-01-03 14:20:00,
2014-01-03 09:25:00,5.4,1.6,30.14,West,263,2.9,5.8,84,0.00,-SN,BKN,0.00,43.9,WeatherDisplay:10.37,2014-01-03 14:25:00,
2014-01-03 09:30:00,5.4,1.6,30.14,West,272,4.3,8.1,84,0.00,-SN,BKN,0.00,48.5,WeatherDisplay:10.37,2014-01-03 14:30:00,
2014-01-03 09:35:00,5.4,1.3,30.15,West,259,3.6,9.2,83,0.00,SCT,BKN,0.00,57.8,WeatherDisplay:10.37,2014-01-03 14:35:00,
2014-01-03 09:40:00,5.2,1.4,30.15,WSW,252,5.1,9.2,84,0.00,SCT,BKN,0.00,68.7,WeatherDisplay:10.37,2014-01-03 14:40:00,
2014-01-03 09:45:00,5.0,1.0,30.16,WNW,292,5.4,6.9,83,0.00,SCT,BKN,0.00,148.7,WeatherDisplay:10.37,2014-01-03 14:45:00,
2014-01-03 09:50:00,5.0,1.2,30.17,NW,309,3.9,6.9,84,0.00,SCT,BKN,0.00,106.4,WeatherDisplay:10.37,2014-01-03 14:50:00,
2014-01-03 09:55:00,5.0,1.2,30.17,West,267,5.7,8.1,84,0.00,SCT,BKN,0.00,108.3,WeatherDisplay:10.37,2014-01-03 14:55:00,
2014-01-03 10:00:00,4.8,1.0,30.17,West,273,7.1,9.2,84,0.00,SCT,BKN,0.00,117.3,WeatherDisplay:10.37,2014-01-03 15:00:00,
2014-01-03 10:05:00,4.8,1.0,30.17,WNW,293,5.2,9.8,84,0.00,SCT,BKN,0.00,91.8,WeatherDisplay:10.37,2014-01-03 15:05:00,
2014-01-03 10:10:00,5.0,1.2,30.17,SW,227,2.9,5.8,84,0.00,SCT,BKN,0.00,63.2,WeatherDisplay:10.37,2014-01-03 15:10:00,
2014-01-03 10:15:00,4.8,0.8,30.17,WNW,291,6.0,9.2,83,0.00,SCT,BKN,0.00,112.7,WeatherDisplay:10.37,2014-01-03 15:15:00,
2014-01-03 10:20:00,4.8,1.0,30.17,West,273,3.5,6.9,84,0.00,SCT,BKN,0.00,110.9,WeatherDisplay:10.37,2014-01-03 15:20:00,
2014-01-03 10:25:00,4.8,1.0,30.17,WSW,248,4.9,10.4,84,0.00,SCT,BKN,0.00,121.8,WeatherDisplay:10.37,2014-01-03 15:25:00,
2014-01-03 10:30:00,4.8,1.0,30.17,WNW,284,4.5,8.1,84,0.00,SCT,BKN,0.00,191.3,WeatherDisplay:10.37,2014-01-03 15:30:00,
2014-01-03 10:35:00,5.0,1.2,30.17,West,263,3.7,10.4,84,0.00,SCT,BKN,0.00,107.4,WeatherDisplay:10.37,2014-01-03 15:35:00,
2014-01-03 10:40:00,5.0,1.2,30.17,WSW,243,4.1,8.1,84,0.00,SCT,BKN,0.00,149.1,WeatherDisplay:10.37,2014-01-03 15:40:00,
2014-01-03 10:45:00,5.2,1.4,30.17,West,272,4.1,6.9,84,0.00,SCT,BKN,0.00,158.6,WeatherDisplay:10.37,2014-01-03 15:45:00,
2014-01-03 10:50:00,5.4,1.6,30.17,WNW,292,4.5,12.7,84,0.00,SCT,BKN,0.00,271.5,WeatherDisplay:10.37,2014-01-03 15:50:00,
2014-01-03 10:55:00,5.4,1.6,30.17,WSW,251,4.3,6.9,84,0.00,SCT,BKN,0.00,214.8,WeatherDisplay:10.37,2014-01-03 15:55:00,
2014-01-03 11:00:00,5.5,1.8,30.18,NW,309,5.9,9.3,84,0.00,SCT,BKN,0.00,600.6,WeatherDisplay:10.37,2014-01-03 16:00:00,
2014-01-03 11:05:00,5.7,1.9,30.18,West,277,2.9,3.5,84,0.00,-SN,BKN,0.00,551.0,WeatherDisplay:10.37,2014-01-03 16:05:00,
2014-01-03 11:10:00,5.9,2.1,30.17,WNW,292,7.9,11.5,84,0.00,-SN,BKN,0.00,600.8,WeatherDisplay:10.37,2014-01-03 16:10:00,
2014-01-03 11:15:00,6.1,2.3,30.17,NW,310,6.9,13.8,84,0.00,-SN,BKN,0.00,298.6,WeatherDisplay:10.37,2014-01-03 16:15:00,
2014-01-03 11:20:00,6.6,3.1,30.17,WNW,303,5.3,8.1,85,0.00,-SN,BKN,0.00,972.6,WeatherDisplay:10.37,2014-01-03 16:20:00,
2014-01-03 11:25:00,7.2,3.6,30.17,West,263,5.0,9.2,85,0.00,-SN,BKN,0.00,712.5,WeatherDisplay:10.37,2014-01-03 16:25:00,
2014-01-03 11:30:00,7.5,4.0,30.17,West,259,4.0,8.1,85,0.00,-SN,BKN,0.00,743.8,WeatherDisplay:10.37,2014-01-03 16:30:00,
2014-01-03 11:35:00,7.7,4.1,30.17,West,273,5.2,9.2,85,0.00,-SN,BKN,0.00,499.3,WeatherDisplay:10.37,2014-01-03 16:35:00,
2014-01-03 11:40:00,7.9,4.1,30.17,SW,234,3.6,8.1,84,0.00,-SN,BKN,0.00,608.2,WeatherDisplay:10.37,2014-01-03 16:40:00,
2014-01-03 11:45:00,8.1,4.5,30.17,WNW,288,5.2,8.1,85,0.00,-SN,BKN,0.00,1025.4,WeatherDisplay:10.37,2014-01-03 16:45:00,
2014-01-03 11:50:00,7.9,4.3,30.18,West,276,4.5,8.9,85,0.00,-SN,BKN,0.00,1087.3,WeatherDisplay:10.37,2014-01-03 16:50:00,
2014-01-03 11:55:00,7.9,4.1,30.18,SW,227,4.5,8.1,84,0.00,-SN,BKN,0.00,248.4,WeatherDisplay:10.37,2014-01-03 16:55:00,
2014-01-03 12:00:00,7.5,3.7,30.18,WSW,244,4.7,9.2,84,0.00,-SN,BKN,0.00,259.6,WeatherDisplay:10.37,2014-01-03 17:00:00,
2014-01-03 12:05:00,7.9,4.1,30.17,West,279,4.1,5.8,84,0.00,-SN,BKN,0.00,797.4,WeatherDisplay:10.37,2014-01-03 17:05:00,
2014-01-03 12:10:00,7.9,4.3,30.17,West,276,8.1,11.7,85,0.00,-SN,BKN,0.00,645.3,WeatherDisplay:10.37,2014-01-03 17:10:00,
2014-01-03 12:15:00,7.9,4.3,30.17,SW,227,7.4,11.5,85,0.00,-SN,BKN,0.00,834.7,WeatherDisplay:10.37,2014-01-03 17:15:00,
2014-01-03 12:20:00,7.9,4.3,30.18,West,260,4.6,6.9,85,0.00,SCT,BKN,0.00,429.9,WeatherDisplay:10.37,2014-01-03 17:20:00,
2014-01-03 12:25:00,7.7,3.9,30.18,West,266,3.5,7.2,84,0.00,SCT,BKN,0.00,533.3,WeatherDisplay:10.37,2014-01-03 17:25:00,
2014-01-03 12:30:00,7.7,4.1,30.18,West,259,8.4,12.7,85,0.00,SCT,BKN,0.00,845.4,WeatherDisplay:10.37,2014-01-03 17:30:00,
2014-01-03 12:35:00,7.9,4.1,30.18,WSW,254,5.6,8.1,84,0.00,SCT,BKN,0.00,899.1,WeatherDisplay:10.37,2014-01-03 17:35:00,
2014-01-03 12:40:00,8.1,4.5,30.18,West,267,6.0,11.7,85,0.00,SCT,BKN,0.00,820.4,WeatherDisplay:10.37,2014-01-03 17:40:00,
2014-01-03 12:45:00,8.2,4.7,30.19,West,280,6.6,13.8,85,0.00,SCT,BKN,0.00,775.2,WeatherDisplay:10.37,2014-01-03 17:45:00,
2014-01-03 12:50:00,8.4,4.8,30.18,West,275,8.1,10.4,85,0.00,SCT,BKN,0.00,611.2,WeatherDisplay:10.37,2014-01-03 17:50:00,
2014-01-03 12:55:00,8.8,5.2,30.19,West,276,5.2,8.1,85,0.00,SCT,BKN,0.00,897.2,WeatherDisplay:10.37,2014-01-03 17:55:00,
2014-01-03 13:00:00,8.4,4.8,30.19,WSW,243,6.6,10.4,85,0.00,SCT,BKN,0.00,664.6,WeatherDisplay:10.37,2014-01-03 18:00:00,
2014-01-03 13:05:00,8.1,4.2,30.19,SW,232,5.9,8.1,84,0.00,BKN,,0.00,202.4,WeatherDisplay:10.37,2014-01-03 18:05:00,
2014-01-03 13:10:00,8.1,4.2,30.19,West,272,6.0,8.1,84,0.00,BKN,,0.00,910.5,WeatherDisplay:10.37,2014-01-03 18:10:00,
2014-01-03 13:15:00,8.8,5.2,30.19,West,279,5.5,8.1,85,0.00,BKN,,0.00,1076.5,WeatherDisplay:10.37,2014-01-03 18:15:00,
2014-01-03 13:20:00,9.0,5.6,30.19,West,270,4.7,11.0,86,0.00,BKN,,0.00,1106.4,WeatherDisplay:10.37,2014-01-03 18:20:00,
2014-01-03 13:25:00,9.1,5.5,30.19,WSW,243,5.3,6.9,85,0.00,BKN,,0.00,1040.6,WeatherDisplay:10.37,2014-01-03 18:25:00,
2014-01-03 13:30:00,9.3,5.7,30.19,WSW,257,3.1,5.3,85,0.00,BKN,,0.00,1045.5,WeatherDisplay:10.37,2014-01-03 18:30:00,
2014-01-03 13:35:00,9.3,5.7,30.19,SW,236,3.7,5.8,85,0.00,BKN,,0.00,1020.6,WeatherDisplay:10.37,2014-01-03 18:35:00,
2014-01-03 13:40:00,9.7,6.3,30.19,SSW,206,2.5,4.4,86,0.00,BKN,,0.00,991.3,WeatherDisplay:10.37,2014-01-03 18:40:00,
2014-01-03 13:45:00,9.7,6.1,30.19,WSW,237,4.5,6.9,85,0.00,BKN,,0.00,974.3,WeatherDisplay:10.37,2014-01-03 18:45:00,
2014-01-03 13:50:00,9.7,6.3,30.19,WNW,285,5.3,6.9,86,0.00,BKN,,0.00,962.3,WeatherDisplay:10.37,2014-01-03 18:50:00,
2014-01-03 13:55:00,9.7,6.1,30.19,SW,223,3.5,5.8,85,0.00,BKN,,0.00,957.0,WeatherDisplay:10.37,2014-01-03 18:55:00,
2014-01-03 14:00:00,9.5,5.9,30.19,West,280,4.0,6.9,85,0.00,BKN,,0.00,955.6,WeatherDisplay:10.37,2014-01-03 19:00:00,
2014-01-03 14:05:00,9.9,6.5,30.19,WNW,294,5.2,6.9,86,0.00,BKN,,0.00,918.0,WeatherDisplay:10.37,2014-01-03 19:05:00,
2014-01-03 14:10:00,9.7,6.1,30.19,WNW,283,4.8,6.9,85,0.00,BKN,,0.00,887.7,WeatherDisplay:10.37,2014-01-03 19:10:00,
2014-01-03 14:15:00,9.7,6.3,30.19,SW,229,3.7,4.6,86,0.00,BKN,,0.00,863.0,WeatherDisplay:10.37,2014-01-03 19:15:00,
2014-01-03 14:20:00,9.5,6.2,30.19,SW,236,5.4,8.1,86,0.00,BKN,,0.00,835.6,WeatherDisplay:10.37,2014-01-03 19:20:00,
2014-01-03 14:25:00,9.5,6.2,30.19,WNW,287,3.5,5.8,86,0.00,BKN,,0.00,821.9,WeatherDisplay:10.37,2014-01-03 19:25:00,
2014-01-03 14:30:00,9.5,6.2,30.20,SW,219,3.9,6.3,86,0.00,BKN,,0.00,821.0,WeatherDisplay:10.37,2014-01-03 19:30:00,
2014-01-03 14:35:00,9.7,6.3,30.21,WSW,246,4.1,9.2,86,0.00,BKN,,0.00,805.2,WeatherDisplay:10.37,2014-01-03 19:35:00,
2014-01-03 14:40:00,9.7,6.3,30.21,SW,219,5.4,6.9,86,0.00,BKN,,0.00,750.3,WeatherDisplay:10.37,2014-01-03 19:40:00,
2014-01-03 14:45:00,9.3,6.0,30.20,SW,218,6.7,9.2,86,0.00,BKN,,0.00,713.4,WeatherDisplay:10.37,2014-01-03 19:45:00,
2014-01-03 14:50:00,9.0,5.6,30.20,SSW,211,6.5,8.2,86,0.00,BKN,,0.00,689.9,WeatherDisplay:10.37,2014-01-03 19:50:00,
2014-01-03 14:55:00,8.8,5.4,30.20,SW,222,5.1,8.1,86,0.00,BKN,,0.00,658.8,WeatherDisplay:10.37,2014-01-03 19:55:00,
2014-01-03 15:00:00,8.8,5.4,30.20,West,273,3.3,6.9,86,0.00,BKN,,0.00,635.3,WeatherDisplay:10.37,2014-01-03 20:00:00,
2014-01-03 15:05:00,8.8,5.4,30.21,SW,226,4.6,6.9,86,0.00,SCT,BKN,0.00,593.8,WeatherDisplay:10.37,2014-01-03 20:05:00,
2014-01-03 15:10:00,9.0,5.6,30.21,WSW,256,4.3,6.2,86,0.00,SCT,BKN,0.00,573.7,WeatherDisplay:10.37,2014-01-03 20:10:00,
2014-01-03 15:15:00,9.3,6.0,30.21,WSW,256,3.5,5.8,86,0.00,SCT,BKN,0.00,545.5,WeatherDisplay:10.37,2014-01-03 20:15:00,
2014-01-03 15:20:00,9.7,6.3,30.21,SSW,209,4.3,5.8,86,0.00,SCT,BKN,0.00,513.2,WeatherDisplay:10.37,2014-01-03 20:20:00,
2014-01-03 15:25:00,9.5,6.2,30.21,WNW,290,5.4,8.1,86,0.00,SCT,BKN,0.00,480.8,WeatherDisplay:10.37,2014-01-03 20:25:00,
2014-01-03 15:30:00,9.5,6.2,30.21,West,263,4.4,5.8,86,0.00,SCT,BKN,0.00,449.2,WeatherDisplay:10.37,2014-01-03 20:30:00,
2014-01-03 15:35:00,9.3,5.7,30.22,West,263,4.5,8.1,85,0.00,SCT,BKN,0.00,422.5,WeatherDisplay:10.37,2014-01-03 20:35:00,
2014-01-03 15:40:00,9.3,6.0,30.22,SW,235,2.7,5.3,86,0.00,SCT,BKN,0.00,394.8,WeatherDisplay:10.37,2014-01-03 20:40:00,
2014-01-03 15:45:00,9.3,5.7,30.22,West,271,2.4,4.1,85,0.00,SCT,BKN,0.00,344.2,WeatherDisplay:10.37,2014-01-03 20:45:00,
2014-01-03 15:50:00,9.3,6.0,30.22,West,262,3.1,5.8,86,0.00,SCT,BKN,0.00,320.8,WeatherDisplay:10.37,2014-01-03 20:50:00,
2014-01-03 15:55:00,9.3,6.0,30.22,SW,233,3.3,6.0,86,0.00,SCT,BKN,0.00,282.8,WeatherDisplay:10.37,2014-01-03 20:55:00,
2014-01-03 16:00:00,9.0,5.4,30.22,West,269,4.2,6.9,85,0.00,SCT,BKN,0.00,223.5,WeatherDisplay:10.37,2014-01-03 21:00:00,
2014-01-03 16:05:00,9.0,5.4,30.22,WSW,248,4.4,5.8,85,0.00,SCT,BKN,0.00,180.5,WeatherDisplay:10.37,2014-01-03 21:05:00,
2014-01-03 16:10:00,8.8,5.2,30.22,WSW,246,2.5,3.5,85,0.00,SCT,BKN,0.00,99.5,WeatherDisplay:10.37,2014-01-03 21:10:00,
2014-01-03 16:15:00,8.6,5.3,30.22,SW,214,2.7,4.6,86,0.00,SCT,BKN,0.00,137.2,WeatherDisplay:10.37,2014-01-03 21:15:00,
2014-01-03 16:20:00,8.4,4.8,30.22,SW,233,3.1,4.6,85,0.00,SCT,BKN,0.00,122.4,WeatherDisplay:10.37,2014-01-03 21:20:00,
2014-01-03 16:25:00,8.2,4.7,30.23,SW,227,3.3,6.9,85,0.00,SCT,BKN,0.00,80.3,WeatherDisplay:10.37,2014-01-03 21:25:00,
2014-01-03 16:30:00,8.1,4.5,30.23,SSW,203,4.0,6.9,85,0.00,SCT,BKN,0.00,81.4,WeatherDisplay:10.37,2014-01-03 21:30:00,
2014-01-03 16:35:00,7.9,4.3,30.23,West,259,2.7,5.2,85,0.00,SCT,BKN,0.00,48.1,WeatherDisplay:10.37,2014-01-03 21:35:00,
2014-01-03 16:40:00,7.7,4.1,30.24,West,264,3.4,4.6,85,0.00,SCT,BKN,0.00,20.1,WeatherDisplay:10.37,2014-01-03 21:40:00,
2014-01-03 16:45:00,7.5,4.0,30.24,SW,219,2.4,4.6,85,0.00,SCT,BKN,0.00,5.1,WeatherDisplay:10.37,2014-01-03 21:45:00,
2014-01-03 16:50:00,7.2,3.6,30.24,WSW,237,1.6,3.5,85,0.00,SCT,BKN,0.00,4.7,WeatherDisplay:10.37,2014-01-03 21:50:00,
2014-01-03 16:55:00,7.0,3.4,30.24,SW,225,2.5,3.5,85,0.00,SCT,BKN,0.00,2.2,WeatherDisplay:10.37,2014-01-03 21:55:00,
2014-01-03 17:00:00,7.0,3.4,30.24,SW,214,2.5,4.6,85,0.00,SCT,BKN,0.00,2.0,WeatherDisplay:10.37,2014-01-03 22:00:00,
2014-01-03 17:05:00,6.8,3.2,30.24,SW,217,1.1,2.6,85,0.00,SCT,BKN,0.00,0.0,WeatherDisplay:10.37,2014-01-03 22:05:00,
2014-01-03 17:10:00,6.6,3.1,30.24,SSW,201,1.4,2.3,85,0.00,SCT,BKN,0.00,0.0,WeatherDisplay:10.37,2014-01-03 22:10:00,
2014-01-03 17:15:00,6.3,2.7,30.24,WSW,243,0.1,2.3,85,0.00,SCT,BKN,0.00,0.0,WeatherDisplay:10.37,2014-01-03 22:15:00,
2014-01-03 17:20:00,6.3,2.7,30.24,SSW,211,0.7,2.3,85,0.00,SCT,BKN,0.00,0.0,WeatherDisplay:10.37,2014-01-03 22:20:00,
2014-01-03 17:25:00,6.1,2.5,30.24,SW,214,0.0,0.0,85,0.00,SCT,BKN,0.00,0.0,WeatherDisplay:10.37,2014-01-03 22:25:00,
2014-01-03 17:30:00,5.9,2.4,30.25,SW,214,0.0,0.0,85,0.00,SCT,BKN,0.00,0.0,WeatherDisplay:10.37,2014-01-03 22:30:00,
2014-01-03 17:35:00,5.9,2.4,30.24,SSW,208,0.0,0.0,85,0.00,SCT,BKN,0.00,0.0,WeatherDisplay:10.37,2014-01-03 22:35:00,
2014-01-03 17:40:00,5.7,2.2,30.25,SSW,201,0.0,0.0,85,0.00,SCT,BKN,0.00,0.0,WeatherDisplay:10.37,2014-01-03 22:40:00,
2014-01-03 17:45:00,5.7,1.9,30.25,SSW,199,0.1,1.4,84,0.00,SCT,BKN,0.00,0.0,WeatherDisplay:10.37,2014-01-03 22:45:00,
2014-01-03 17:50:00,5.5,1.8,30.25,SSW,196,0.0,0.0,84,0.00,SCT,BKN,0.00,0.0,WeatherDisplay:10.37,2014-01-03 22:50:00,
2014-01-03 17:55:00,5.5,1.8,30.25,SSW,196,0.0,0.0,84,0.00,SCT,BKN,0.00,0.0,WeatherDisplay:10.37,2014-01-03 22:55:00,
2014-01-03 18:00:00,5.4,1.6,30.25,SSW,195,0.0,0.0,84,0.00,SCT,BKN,0.00,0.0,WeatherDisplay:10.37,2014-01-03 23:00:00,
2014-01-03 18:05:00,5.4,1.6,30.25,South,182,0.1,1.1,84,0.00,SCT,BKN,0.00,0.0,WeatherDisplay:10.37,2014-01-03 23:05:00,
2014-01-03 18:10:00,5.4,1.6,30.25,South,174,0.0,0.0,84,0.00,SCT,BKN,0.00,0.0,WeatherDisplay:10.37,2014-01-03 23:10:00,
2014-01-03 18:15:00,5.2,1.4,30.25,South,173,0.0,0.0,84,0.00,SCT,BKN,0.00,0.0,WeatherDisplay:10.37,2014-01-03 23:15:00,
2014-01-03 18:20:00,5.0,1.2,30.24,South,174,0.0,0.0,84,0.00,SCT,BKN,0.00,0.0,WeatherDisplay:10.37,2014-01-03 23:20:00,
2014-01-03 18:25:00,4.8,0.8,30.24,SSE,155,0.0,0.0,83,0.00,SCT,BKN,0.00,0.0,WeatherDisplay:10.37,2014-01-03 23:25:00,
2014-01-03 18:30:00,4.3,0.3,30.24,SE,141,1.2,2.3,83,0.00,SCT,BKN,0.00,0.0,WeatherDisplay:10.37,2014-01-03 23:30:00,
2014-01-03 18:35:00,4.1,0.1,30.24,SE,135,0.7,2.3,83,0.00,SCT,BKN,0.00,0.0,WeatherDisplay:10.37,2014-01-03 23:35:00,
2014-01-03 18:40:00,3.9,-0.1,30.23,SSE,147,1.4,2.3,83,0.00,SCT,BKN,0.00,0.0,WeatherDisplay:10.37,2014-01-03 23:40:00,
2014-01-03 18:45:00,3.6,-0.7,30.22,SE,141,1.1,2.3,82,0.00,SCT,BKN,0.00,0.0,WeatherDisplay:10.37,2014-01-03 23:45:00,
2014-01-03 18:50:00,3.6,-0.7,30.22,SE,138,1.3,2.3,82,0.00,SCT,BKN,0.00,0.0,WeatherDisplay:10.37,2014-01-03 23:50:00,
2014-01-03 18:55:00,3.4,-0.9,30.22,SE,140,0.1,1.1,82,0.00,SCT,BKN,0.00,0.0,WeatherDisplay:10.37,2014-01-03 23:55:00,
2014-01-03 19:00:00,3.4,-0.9,30.22,SSE,152,0.7,2.3,82,0.00,SCT,BKN,0.00,0.0,WeatherDisplay:10.37,2014-01-04 00:00:00,
2014-01-03 19:05:00,3.4,-0.9,30.23,SSE,154,0.0,0.0,82,0.00,SCT,BKN,0.00,0.0,WeatherDisplay:10.37,2014-01-04 00:05:00,
2014-01-03 19:10:00,2.8,-1.4,30.22,SE,138,0.4,2.3,82,0.00,SCT,BKN,0.00,0.0,WeatherDisplay:10.37,2014-01-04 00:10:00,
2014-01-03 19:15:00,2.8,-1.4,30.22,SE,141,1.2,2.3,82,0.00,SCT,BKN,0.00,0.0,WeatherDisplay:10.37,2014-01-04 00:15:00,
2014-01-03 19:18:00,2.8,-1.4,30.22,SE,143,1.1,1.4,82,0.00,SCT,BKN,0.00,0.0,WeatherDisplay:10.37,2014-01-04 00:18:00,
2014-01-03 19:23:00,2.7,-1.6,30.22,SE,143,0.0,0.0,82,0.00,SCT,BKN,0.00,0.0,WeatherDisplay:10.37,2014-01-04 00:23:00,
2014-01-03 19:28:00,2.7,-1.6,30.23,SSE,152,0.0,0.0,82,0.00,SCT,BKN,0.00,0.0,WeatherDisplay:10.37,2014-01-04 00:28:00,
2014-01-03 19:33:00,2.1,-2.1,30.23,SE,142,0.6,0.9,82,0.00,SCT,BKN,0.00,0.0,WeatherDisplay:10.37,2014-01-04 00:33:00,
2014-01-03 19:38:00,2.1,-2.1,30.22,SSE,161,0.0,2.3,82,0.00,SCT,BKN,0.00,0.0,WeatherDisplay:10.37,2014-01-04 00:38:00,
2014-01-03 19:43:00,1.8,-2.7,30.22,SE,143,1.6,2.3,81,0.00,SCT,BKN,0.00,0.0,WeatherDisplay:10.37,2014-01-04 00:43:00,
2014-01-03 19:48:00,1.6,-2.9,30.22,SSE,149,1.0,2.3,81,0.00,SCT,BKN,0.00,0.0,WeatherDisplay:10.37,2014-01-04 00:48:00,
2014-01-03 19:53:00,1.2,-3.3,30.22,SE,144,2.0,3.0,81,0.00,SCT,BKN,0.00,0.0,WeatherDisplay:10.37,2014-01-04 00:53:00,
2014-01-03 19:58:00,1.2,-3.0,30.22,SSE,152,1.4,3.5,82,0.00,SCT,BKN,0.00,0.0,WeatherDisplay:10.37,2014-01-04 00:58:00,
2014-01-03 20:03:00,1.2,-3.0,30.22,SSE,155,1.7,3.5,82,0.00,SCT,BKN,0.00,0.0,WeatherDisplay:10.37,2014-01-04 01:03:00,
2014-01-03 20:08:00,1.4,-2.8,30.22,South,172,1.5,3.5,82,0.00,SCT,BKN,0.00,0.0,WeatherDisplay:10.37,2014-01-04 01:08:00,
2014-01-03 20:13:00,1.4,-2.8,30.22,SSE,160,0.7,2.3,82,0.00,SCT,BKN,0.00,0.0,WeatherDisplay:10.37,2014-01-04 01:13:00,
2014-01-03 20:18:00,1.6,-2.6,30.22,South,169,1.0,3.5,82,0.00,SCT,BKN,0.00,0.0,WeatherDisplay:10.37,2014-01-04 01:18:00,
2014-01-03 20:23:00,1.8,-2.5,30.22,South,177,1.5,2.6,82,0.00,SCT,BKN,0.00,0.0,WeatherDisplay:10.37,2014-01-04 01:23:00,
2014-01-03 20:28:00,1.6,-2.6,30.22,South,171,1.5,3.5,82,0.00,SCT,BKN,0.00,0.0,WeatherDisplay:10.37,2014-01-04 01:28:00,
2014-01-03 20:33:00,1.8,-2.2,30.22,South,175,1.5,2.3,83,0.00,SCT,BKN,0.00,0.0,WeatherDisplay:10.37,2014-01-04 01:33:00,
2014-01-03 20:38:00,1.9,-2.0,30.22,South,173,1.2,2.3,83,0.00,SCT,BKN,0.00,0.0,WeatherDisplay:10.37,2014-01-04 01:38:00,
2014-01-03 20:43:00,2.5,-1.5,30.22,SSE,165,0.0,1.1,83,0.00,SCT,BKN,0.00,0.0,WeatherDisplay:10.37,2014-01-04 01:43:00,
2014-01-03 20:48:00,2.5,-1.5,30.21,SSE,167,0.0,0.0,83,0.00,SCT,BKN,0.00,0.0,WeatherDisplay:10.37,2014-01-04 01:48:00,
2014-01-03 20:53:00,2.7,-1.3,30.21,South,177,1.3,2.3,83,0.00,SCT,BKN,0.00,0.0,WeatherDisplay:10.37,2014-01-04 01:53:00,
2014-01-03 20:58:00,2.7,-1.3,30.21,South,174,0.0,1.1,83,0.00,SCT,BKN,0.00,0.0,WeatherDisplay:10.37,2014-01-04 01:58:00,
2014-01-03 21:03:00,2.8,-1.2,30.21,South,174,0.0,0.0,83,0.00,-SN,BKN,0.00,0.0,WeatherDisplay:10.37,2014-01-04 02:03:00,
2014-01-03 21:08:00,3.0,-1.0,30.20,SSE,159,0.0,0.0,83,0.00,-SN,BKN,0.00,0.0,WeatherDisplay:10.37,2014-01-04 02:08:00,
2014-01-03 21:13:00,3.0,-1.0,30.21,SSE,165,0.7,2.3,83,0.00,-SN,BKN,0.00,0.0,WeatherDisplay:10.37,2014-01-04 02:13:00,
2014-01-03 21:18:00,3.0,-1.0,30.19,SSE,162,1.1,2.3,83,0.00,-SN,BKN,0.00,0.0,WeatherDisplay:10.37,2014-01-04 02:18:00,
2014-01-03 21:23:00,3.0,-1.0,30.19,SSE,163,0.9,2.3,83,0.00,-SN,BKN,0.00,0.0,WeatherDisplay:10.37,2014-01-04 02:23:00,
2014-01-03 21:28:00,3.0,-1.0,30.20,SSE,162,0.7,2.3,83,0.00,-SN,BKN,0.00,0.0,WeatherDisplay:10.37,2014-01-04 02:28:00,
2014-01-03 21:33:00,3.2,-0.8,30.20,SSE,157,0.6,2.3,83,0.00,-SN,BKN,0.00,0.0,WeatherDisplay:10.37,2014-01-04 02:33:00,
2014-01-03 21:38:00,3.4,-0.6,30.20,South,169,1.2,2.3,83,0.00,-SN,BKN,0.00,0.0,WeatherDisplay:10.37,2014-01-04 02:38:00,
2014-01-03 21:43:00,3.4,-0.6,30.20,SSE,154,1.5,2.6,83,0.00,-SN,BKN,0.00,0.0,WeatherDisplay:10.37,2014-01-04 02:43:00,
2014-01-03 21:48:00,3.6,-0.4,30.19,SSE,155,1.3,2.3,83,0.00,-SN,BKN,0.00,0.0,WeatherDisplay:10.37,2014-01-04 02:48:00,
2014-01-03 21:53:00,3.7,-0.3,30.19,South,174,1.0,2.3,83,0.00,-SN,BKN,0.00,0.0,WeatherDisplay:10.37,2014-01-04 02:53:00,
2014-01-03 21:57:00,3.6,-0.4,30.19,South,182,1.9,3.5,83,0.00,-SN,BKN,0.00,0.0,WeatherDisplay:10.37,2014-01-04 02:57:00,
2014-01-03 22:02:00,3.7,-0.3,30.19,South,177,2.7,3.5,83,0.00,FEW,BKN,0.00,0.0,WeatherDisplay:10.37,2014-01-04 03:02:00,
2014-01-03 22:07:00,4.3,0.5,30.19,SSE,162,1.3,2.3,84,0.00,FEW,BKN,0.00,0.0,WeatherDisplay:10.37,2014-01-04 03:07:00,
2014-01-03 22:12:00,4.3,0.5,30.18,South,170,0.3,1.1,84,0.00,FEW,BKN,0.00,0.0,WeatherDisplay:10.37,2014-01-04 03:12:00,
2014-01-03 22:17:00,4.6,0.9,30.18,SSE,155,0.9,2.3,84,0.00,FEW,BKN,0.00,0.0,WeatherDisplay:10.37,2014-01-04 03:17:00,
2014-01-03 22:22:00,4.8,0.8,30.18,SSE,156,0.7,2.3,83,0.00,FEW,BKN,0.00,0.0,WeatherDisplay:10.37,2014-01-04 03:22:00,
2014-01-03 22:27:00,5.0,1.0,30.18,SSE,152,2.0,3.5,83,0.00,FEW,BKN,0.00,0.0,WeatherDisplay:10.37,2014-01-04 03:27:00,
2014-01-03 22:32:00,5.2,1.1,30.18,SSE,168,1.1,2.3,83,0.00,FEW,BKN,0.00,0.0,WeatherDisplay:10.37,2014-01-04 03:32:00,
2014-01-03 22:37:00,5.4,1.6,30.18,SSE,149,1.9,3.5,84,0.00,FEW,BKN,0.00,0.0,WeatherDisplay:10.37,2014-01-04 03:37:00,
2014-01-03 22:42:00,5.5,1.8,30.18,South,172,1.6,3.5,84,0.00,FEW,BKN,0.00,0.0,WeatherDisplay:10.37,2014-01-04 03:42:00,
2014-01-03 22:47:00,5.7,1.7,30.18,South,177,1.5,2.3,83,0.00,FEW,BKN,0.00,0.0,WeatherDisplay:10.37,2014-01-04 03:47:00,
2014-01-03 22:52:00,5.7,1.7,30.18,SSE,157,1.5,3.5,83,0.00,FEW,BKN,0.00,0.0,WeatherDisplay:10.37,2014-01-04 03:52:00,
2014-01-03 22:57:00,6.1,2.3,30.17,SSE,157,2.0,3.5,84,0.00,FEW,BKN,0.00,0.0,WeatherDisplay:10.37,2014-01-04 03:57:00,
2014-01-03 23:02:00,6.3,2.5,30.17,South,182,2.5,4.6,84,0.00,FEW,BKN,0.00,0.0,WeatherDisplay:10.37,2014-01-04 04:02:00,
2014-01-03 23:07:00,6.3,2.5,30.17,SSE,151,4.3,6.9,84,0.00,FEW,BKN,0.00,0.0,WeatherDisplay:10.37,2014-01-04 04:07:00,
2014-01-03 23:12:00,6.4,2.6,30.16,SE,143,4.9,6.9,84,0.00,FEW,BKN,0.00,0.0,WeatherDisplay:10.37,2014-01-04 04:12:00,
2014-01-03 23:17:00,6.6,2.8,30.15,SE,133,4.4,5.8,84,0.00,FEW,BKN,0.00,0.0,WeatherDisplay:10.37,2014-01-04 04:17:00,
2014-01-03 23:22:00,6.6,2.8,30.15,SE,143,4.1,4.6,84,0.00,FEW,BKN,0.00,0.0,WeatherDisplay:10.37,2014-01-04 04:22:00,
2014-01-03 23:27:00,6.6,2.8,30.15,South,172,1.6,3.5,84,0.00,FEW,BKN,0.00,0.0,WeatherDisplay:10.37,2014-01-04 04:27:00,
2014-01-03 23:32:00,6.8,3.0,30.15,SSE,153,2.0,3.5,84,0.00,FEW,BKN,0.00,0.0,WeatherDisplay:10.37,2014-01-04 04:32:00,
2014-01-03 23:37:00,6.8,2.7,30.15,South,169,2.2,5.8,83,0.00,FEW,BKN,0.00,0.0,WeatherDisplay:10.37,2014-01-04 04:37:00,
2014-01-03 23:42:00,7.0,3.2,30.15,SSE,151,3.0,4.6,84,0.00,FEW,BKN,0.00,0.0,WeatherDisplay:10.37,2014-01-04 04:42:00,
2014-01-03 23:47:00,7.0,2.9,30.15,SSE,156,2.7,4.6,83,0.00,FEW,BKN,0.00,0.0,WeatherDisplay:10.37,2014-01-04 04:47:00,
2014-01-03 23:52:00,7.0,2.9,30.15,SSE,159,4.0,5.8,83,0.00,FEW,BKN,0.00,0.0,WeatherDisplay:10.37,2014-01-04 04:52:00,
2014-01-03 23:57:00,7.0,2.9,30.14,SSE,160,3.5,5.8,83,0.00,FEW,BKN,0.00,0.0,WeatherDisplay:10.37,2014-01-04 04:57:00,